Latest Weather Observations for Frankston Beach

IDV60801

Issued at 7:22 am EST Monday 28 September 2020 (issued every 10 minutes, with the page automatically refreshed every 10 minutes)

About weather observations | Map of weather stations | Latest weather observations for VIC | Other Formats
Station Details ID: 086371 Name: FRANKSTON BEACH Lat: -38.15 Lon: 145.12 Height: 6.0 m
Data from the previous 72 hours. | See also: Recent months at Frankston Beach
Date/Time
EST
Temp
°C
App
Temp
°C
Dew
Point
°C
Rel
Hum
%
Delta-T
°C
Wind Press
QNH
hPa
Press
MSL
hPa
Rain since
9am
mm
Dir  Spd
km/h
Gust
km/h
Spd
kts
Gust
kts
28/07:00am - - - - - SW 9 11 5 6 - - -
28/06:30am - - - - - S 7 11 4 6 - - -
28/06:00am - - - - - SSE 7 11 4 6 - - -
28/05:30am - - - - - SSE 9 13 5 7 - - -
28/05:00am - - - - - SSE 7 11 4 6 - - -
28/04:30am - - - - - S 9 11 5 6 - - -
28/04:00am - - - - - SSE 9 11 5 6 - - -
28/03:30am - - - - - SSE 9 11 5 6 - - -
28/03:00am - - - - - S 9 11 5 6 - - -
28/02:30am - - - - - S 7 9 4 5 - - -
28/02:00am - - - - - S 9 11 5 6 - - -
28/01:30am - - - - - S 9 13 5 7 - - -
28/01:00am - - - - - S 9 11 5 6 - - -
28/12:30am - - - - - SSE 9 9 5 5 - - -
28/12:00am - - - - - SSE 9 11 5 6 - - -
 
Date/Time
EST
Temp
°C
App
Temp
°C
Dew
Point
°C
Rel
Hum
%
Delta-T
°C
Wind Press
QNH
hPa
Press
MSL
hPa
Rain since
9am
mm
Dir  Spd
km/h
Gust
km/h
Spd
kts
Gust
kts
27/11:30pm - - - - - SSE 9 11 5 6 - - -
27/11:00pm - - - - - SSE 9 11 5 6 - - -
27/10:30pm - - - - - SSE 9 11 5 6 - - -
27/10:00pm - - - - - SSE 9 11 5 6 - - -
27/09:30pm - - - - - SSE 9 9 5 5 - - -
27/09:00pm - - - - - SSE 9 11 5 6 - - -
27/08:30pm - - - - - SSE 9 11 5 6 - - -
27/08:00pm - - - - - SSE 7 9 4 5 - - -
27/07:30pm - - - - - SSE 7 9 4 5 - - -
27/07:00pm - - - - - SSE 9 11 5 6 - - -
27/06:30pm - - - - - SSE 7 9 4 5 - - -
27/06:00pm - - - - - S 11 19 6 10 - - -
27/05:30pm - - - - - WSW 19 22 10 12 - - -
27/05:00pm - - - - - WSW 20 26 11 14 - - -
27/04:30pm - - - - - WSW 24 28 13 15 - - -
27/04:00pm - - - - - WSW 26 30 14 16 - - -
27/03:30pm - - - - - WSW 28 33 15 18 - - -
27/03:00pm - - - - - WSW 24 28 13 15 - - -
27/02:30pm - - - - - WSW 24 28 13 15 - - -
27/02:00pm - - - - - WSW 24 26 13 14 - - -
27/01:30pm - - - - - WSW 28 32 15 17 - - -
27/01:00pm - - - - - WSW 26 32 14 17 - - -
27/12:30pm - - - - - WSW 26 30 14 16 - - -
27/12:00pm - - - - - WSW 26 30 14 16 - - -
27/11:30am - - - - - WSW 22 30 12 16 - - -
27/11:00am - - - - - SW 15 22 8 12 - - -
27/10:30am - - - - - SW 11 17 6 9 - - -
27/10:00am - - - - - SW 13 22 7 12 - - -
27/09:30am - - - - - SSW 17 24 9 13 - - -
27/09:00am - - - - - SSW 15 22 8 12 - - -
27/08:30am - - - - - SW 15 26 8 14 - - -
27/08:00am - - - - - SSW 13 26 7 14 - - -
27/07:30am - - - - - S 15 20 8 11 - - -
27/07:00am - - - - - S 9 15 5 8 - - -
27/06:30am - - - - - SSE 13 26 7 14 - - -
27/06:00am - - - - - S 11 15 6 8 - - -
27/05:30am - - - - - SSE 9 9 5 5 - - -
27/05:00am - - - - - S 9 15 5 8 - - -
27/04:30am - - - - - SSW 9 11 5 6 - - -
27/04:00am - - - - - SSW 9 11 5 6 - - -
27/03:30am - - - - - SSE 7 9 4 5 - - -
27/03:00am - - - - - SSW 7 11 4 6 - - -
27/02:30am - - - - - SSW 7 9 4 5 - - -
27/02:00am - - - - - SSW 11 13 6 7 - - -
27/01:30am - - - - - SW 11 13 6 7 - - -
27/01:00am - - - - - SW 22 37 12 20 - - -
27/12:30am - - - - - WSW 35 41 19 22 - - -
27/12:00am - - - - - WSW 35 41 19 22 - - -
 
Date/Time
EST
Temp
°C
App
Temp
°C
Dew
Point
°C
Rel
Hum
%
Delta-T
°C
Wind Press
QNH
hPa
Press
MSL
hPa
Rain since
9am
mm
Dir  Spd
km/h
Gust
km/h
Spd
kts
Gust
kts
26/11:30pm - - - - - WSW 32 39 17 21 - - -
26/11:00pm - - - - - W 35 41 19 22 - - -
26/10:30pm - - - - - W 35 41 19 22 - - -
26/10:00pm - - - - - W 35 39 19 21 - - -
26/09:30pm - - - - - W 33 39 18 21 - - -
26/09:00pm - - - - - W 39 46 21 25 - - -
26/08:30pm - - - - - W 33 39 18 21 - - -
26/08:00pm - - - - - WSW 37 44 20 24 - - -
26/07:30pm - - - - - W 33 39 18 21 - - -
26/07:00pm - - - - - WSW 33 41 18 22 - - -
26/06:30pm - - - - - WSW 41 50 22 27 - - -
26/06:00pm - - - - - SW 35 41 19 22 - - -
26/05:30pm - - - - - WSW 41 48 22 26 - - -
26/05:00pm - - - - - WSW 37 43 20 23 - - -
26/04:30pm - - - - - WSW 35 41 19 22 - - -
26/04:00pm - - - - - WSW 35 43 19 23 - - -
26/03:30pm - - - - - WSW 32 37 17 20 - - -
26/03:00pm - - - - - WSW 35 41 19 22 - - -
26/02:30pm - - - - - WSW 35 43 19 23 - - -
26/02:00pm - - - - - SW 35 39 19 21 - - -
26/01:30pm - - - - - WSW 35 43 19 23 - - -
26/01:00pm - - - - - WSW 37 44 20 24 - - -
26/12:30pm - - - - - SW 32 48 17 26 - - -
26/12:18pm - - - - - WSW 39 61 21 33 - - -
26/12:00pm - - - - - W 33 39 18 21 - - -
26/11:30am - - - - - WSW 37 44 20 24 - - -
26/11:14am - - - - - WSW 37 56 20 30 - - -
26/11:00am - - - - - SW 28 33 15 18 - - -
26/10:39am - - - - - SW 41 59 22 32 - - -
26/10:30am - - - - - WSW 43 59 23 32 - - -
26/10:00am - - - - - SW 39 48 21 26 - - -
26/09:30am - - - - - SW 30 41 16 22 - - -
26/09:00am - - - - - SW 35 52 19 28 - - -
26/08:38am - - - - - SW 33 57 18 31 - - -
26/08:30am - - - - - SW 26 39 14 21 - - -
26/08:00am - - - - - SW 30 39 16 21 - - -
26/07:41am - - - - - SW 28 50 15 27 - - -
26/07:30am - - - - - SW 30 37 16 20 - - -
26/07:22am - - - - - SW 28 46 15 25 - - -
26/07:00am - - - - - SW 26 35 14 19 - - -
26/06:30am - - - - - SW 30 48 16 26 - - -
26/06:23am - - - - - SW 30 48 16 26 - - -
26/06:00am - - - - - SW 30 43 16 23 - - -
26/05:30am - - - - - SSW 26 39 14 21 - - -
26/05:22am - - - - - SSW 28 50 15 27 - - -
26/05:00am - - - - - SW 24 48 13 26 - - -
26/04:30am - - - - - SSW 19 26 10 14 - - -
26/04:00am - - - - - WSW 26 33 14 18 - - -
26/03:30am - - - - - W 37 48 20 26 - - -
26/03:00am - - - - - W 39 48 21 26 - - -
26/02:30am - - - - - W 41 50 22 27 - - -
26/02:00am - - - - - W 44 54 24 29 - - -
26/01:30am - - - - - WNW 48 56 26 30 - - -
26/01:00am - - - - - WNW 43 52 23 28 - - -
26/12:30am - - - - - WNW 43 54 23 29 - - -
26/12:00am - - - - - WNW 43 50 23 27 - - -
 
Date/Time
EST
Temp
°C
App
Temp
°C
Dew
Point
°C
Rel
Hum
%
Delta-T
°C
Wind Press
QNH
hPa
Press
MSL
hPa
Rain since
9am
mm
Dir  Spd
km/h
Gust
km/h
Spd
kts
Gust
kts
25/11:30pm - - - - - WNW 39 46 21 25 - - -
25/11:00pm - - - - - WNW 39 48 21 26 - - -
25/10:30pm - - - - - W 43 52 23 28 - - -
25/10:00pm - - - - - W 39 48 21 26 - - -
25/09:30pm - - - - - W 37 44 20 24 - - -
25/09:00pm - - - - - W 39 48 21 26 - - -
25/08:30pm - - - - - W 33 41 18 22 - - -
25/08:16pm - - - - - W 37 46 20 25 - - -
25/08:00pm - - - - - WSW 43 54 23 29 - - -
25/07:30pm - - - - - SW 32 48 17 26 - - -
25/07:28pm - - - - - SW 28 48 15 26 - - -
25/07:00pm - - - - - WSW 41 52 22 28 - - -
25/06:30pm - - - - - SW 32 54 17 29 - - -
25/06:28pm - - - - - SW 30 48 16 26 - - -
25/06:00pm - - - - - WNW 32 39 17 21 - - -
25/05:30pm - - - - - W 33 41 18 22 - - -
25/05:16pm - - - - - W 26 37 14 20 - - -
25/05:00pm - - - - - S 9 19 5 10 - - -
25/04:30pm - - - - - W 32 48 17 26 - - -
25/04:00pm - - - - - WSW 39 48 21 26 - - -
25/03:44pm - - - - - SW 32 52 17 28 - - -
25/03:30pm - - - - - WSW 35 50 19 27 - - -
25/03:00pm - - - - - WSW 41 48 22 26 - - -
25/02:30pm - - - - - W 44 54 24 29 - - -
25/02:00pm - - - - - WSW 37 43 20 23 - - -
25/01:30pm - - - - - WSW 33 37 18 20 - - -
25/01:00pm - - - - - W 35 43 19 23 - - -
25/12:59pm - - - - - W 35 43 19 23 - - -
25/12:30pm - - - - - W 28 37 15 20 - - -
25/12:00pm - - - - - W 28 33 15 18 - - -
25/11:30am - - - - - WNW 28 35 15 19 - - -
25/11:00am - - - - - WNW 24 30 13 16 - - -
25/10:30am - - - - - WNW 28 32 15 17 - - -
25/10:00am - - - - - WNW 26 33 14 18 - - -
25/09:30am - - - - - WNW 28 35 15 19 - - -
25/09:00am - - - - - WNW 22 32 12 17 - - -
25/08:30am - - - - - NW 26 32 14 17 - - -
25/08:00am - - - - - N 26 32 14 17 - - -
25/07:30am - - - - - N 20 30 11 16 - - -

Other formats

Comma delimited format used in spreadsheet applications
http://www.bom.gov.au/fwo/IDV60801/IDV60801.94871.axf

JavaScript Object Notation format (JSON) in row-major order
http://www.bom.gov.au/fwo/IDV60801/IDV60801.94871.json

Data quality

Most of these data are generated automatically and are frequently updated. Quality checks on data are not normally performed. It is possible for incorrect values to appear. Refer to information at About Latest Weather Observations and please check the disclaimer before using these data.